sensor_id;sensor_type;location;lat;lon;timestamp;pressure;altitude;pressure_sealevel;temperature;humidity
70758;BME280;59316;52.964;7.102;2022-09-20T00:04:48;102084.56;;;9.12;nan
70758;BME280;59316;52.964;7.102;2022-09-20T00:09:50;102075.38;;;9.01;nan
70758;BME280;59316;52.964;7.102;2022-09-20T00:14:52;102074.19;;;8.88;nan
70758;BME280;59316;52.964;7.102;2022-09-20T00:19:54;102080.03;;;8.73;nan
70758;BME280;59316;52.964;7.102;2022-09-20T00:24:56;102085.22;;;8.52;nan
70758;BME280;59316;52.964;7.102;2022-09-20T00:29:59;102088.34;;;8.38;nan
70758;BME280;59316;52.964;7.102;2022-09-20T00:35:01;102092.41;;;8.23;nan
70758;BME280;59316;52.964;7.102;2022-09-20T00:40:06;102086.78;;;8.10;nan
70758;BME280;59316;52.964;7.102;2022-09-20T00:50:18;102090.97;;;8.14;nan
70758;BME280;59316;52.964;7.102;2022-09-20T00:55:25;102093.72;;;8.11;nan
70758;BME280;59316;52.964;7.102;2022-09-20T01:00:28;102089.56;;;8.06;nan
70758;BME280;59316;52.964;7.102;2022-09-20T01:05:31;102098.56;;;7.98;nan
70758;BME280;59316;52.964;7.102;2022-09-20T01:10:34;102095.34;;;7.92;nan
70758;BME280;59316;52.964;7.102;2022-09-20T01:15:37;102096.63;;;7.80;nan
70758;BME280;59316;52.964;7.102;2022-09-20T01:20:43;102090.41;;;7.82;nan
70758;BME280;59316;52.964;7.102;2022-09-20T01:26:23;102088.31;;;7.68;nan
70758;BME280;59316;52.964;7.102;2022-09-20T01:31:33;102090.19;;;7.65;nan
70758;BME280;59316;52.964;7.102;2022-09-20T01:42:46;102081.44;;;7.66;nan
70758;BME280;59316;52.964;7.102;2022-09-20T02:26:22;102095.00;;;7.27;nan
70758;BME280;59316;52.964;7.102;2022-09-20T02:37:35;102088.72;;;7.05;nan
70758;BME280;59316;52.964;7.102;2022-09-20T02:47:55;102083.38;;;6.83;nan
70758;BME280;59316;52.964;7.102;2022-09-20T02:53:25;102093.88;;;6.82;nan
70758;BME280;59316;52.964;7.102;2022-09-20T03:04:01;102087.09;;;6.76;nan
70758;BME280;59316;52.964;7.102;2022-09-20T03:09:53;102085.03;;;6.86;nan
70758;BME280;59316;52.964;7.102;2022-09-20T03:36:52;102086.50;;;6.39;nan
70758;BME280;59316;52.964;7.102;2022-09-20T03:58:23;102091.66;;;5.48;nan
70758;BME280;59316;52.964;7.102;2022-09-20T04:20:53;102084.50;;;5.23;nan
70758;BME280;59316;52.964;7.102;2022-09-20T04:26:03;102094.41;;;5.42;nan
70758;BME280;59316;52.964;7.102;2022-09-20T04:31:19;102102.31;;;5.39;nan
70758;BME280;59316;52.964;7.102;2022-09-20T04:42:01;102113.03;;;5.27;nan
70758;BME280;59316;52.964;7.102;2022-09-20T04:57:44;102132.78;;;4.99;nan
70758;BME280;59316;52.964;7.102;2022-09-20T05:29:24;102139.19;;;4.84;nan
70758;BME280;59316;52.964;7.102;2022-09-20T05:34:37;102143.34;;;4.93;nan
70758;BME280;59316;52.964;7.102;2022-09-20T05:40:05;102149.03;;;4.71;nan
70758;BME280;59316;52.964;7.102;2022-09-20T06:02:12;102161.63;;;4.88;nan
70758;BME280;59316;52.964;7.102;2022-09-20T06:07:38;102170.53;;;4.80;nan
70758;BME280;59316;52.964;7.102;2022-09-20T06:23:23;102170.84;;;4.64;nan
70758;BME280;59316;52.964;7.102;2022-09-20T06:28:29;102180.63;;;4.92;nan
70758;BME280;59316;52.964;7.102;2022-09-20T06:33:44;102183.97;;;5.35;nan
70758;BME280;59316;52.964;7.102;2022-09-20T06:39:17;102175.81;;;6.15;nan
70758;BME280;59316;52.964;7.102;2022-09-20T06:44:21;102179.59;;;6.93;nan
70758;BME280;59316;52.964;7.102;2022-09-20T06:49:23;102185.41;;;7.29;nan
70758;BME280;59316;52.964;7.102;2022-09-20T06:54:26;102182.16;;;7.22;nan
70758;BME280;59316;52.964;7.102;2022-09-20T06:59:28;102177.81;;;7.48;nan
70758;BME280;59316;52.964;7.102;2022-09-20T07:04:30;102177.75;;;8.00;nan
70758;BME280;59316;52.964;7.102;2022-09-20T07:09:33;102180.50;;;8.68;nan
70758;BME280;59316;52.964;7.102;2022-09-20T07:14:35;102190.28;;;9.30;nan
70758;BME280;59316;52.964;7.102;2022-09-20T07:19:37;102192.81;;;10.14;nan
70758;BME280;59316;52.964;7.102;2022-09-20T07:24:40;102194.47;;;10.93;nan
70758;BME280;59316;52.964;7.102;2022-09-20T07:29:42;102195.34;;;11.81;nan
70758;BME280;59316;52.964;7.102;2022-09-20T07:34:45;102199.75;;;11.98;nan
70758;BME280;59316;52.964;7.102;2022-09-20T07:39:48;102199.31;;;11.37;nan
70758;BME280;59316;52.964;7.102;2022-09-20T07:44:50;102215.09;;;11.37;nan
70758;BME280;59316;52.964;7.102;2022-09-20T07:49:52;102211.81;;;12.84;nan
70758;BME280;59316;52.964;7.102;2022-09-20T07:54:54;102205.81;;;14.03;nan
70758;BME280;59316;52.964;7.102;2022-09-20T07:59:56;102212.84;;;13.88;nan
70758;BME280;59316;52.964;7.102;2022-09-20T08:04:59;102222.09;;;13.04;nan
70758;BME280;59316;52.964;7.102;2022-09-20T08:10:02;102219.47;;;12.56;nan
70758;BME280;59316;52.964;7.102;2022-09-20T08:15:04;102227.53;;;12.37;nan
70758;BME280;59316;52.964;7.102;2022-09-20T08:20:12;102237.84;;;12.24;nan
70758;BME280;59316;52.964;7.102;2022-09-20T08:25:14;102236.25;;;12.04;nan
70758;BME280;59316;52.964;7.102;2022-09-20T08:30:16;102237.72;;;11.75;nan
70758;BME280;59316;52.964;7.102;2022-09-20T08:35:19;102244.69;;;11.58;nan
70758;BME280;59316;52.964;7.102;2022-09-20T08:40:22;102252.63;;;11.39;nan
70758;BME280;59316;52.964;7.102;2022-09-20T08:45:25;102264.53;;;11.10;nan
70758;BME280;59316;52.964;7.102;2022-09-20T08:50:39;102259.81;;;10.99;nan
70758;BME280;59316;52.964;7.102;2022-09-20T08:55:42;102259.19;;;10.94;nan
70758;BME280;59316;52.964;7.102;2022-09-20T09:00:45;102264.53;;;10.92;nan
70758;BME280;59316;52.964;7.102;2022-09-20T09:05:55;102265.88;;;11.01;nan
70758;BME280;59316;52.964;7.102;2022-09-20T09:11:01;102267.84;;;12.38;nan
70758;BME280;59316;52.964;7.102;2022-09-20T09:16:08;102242.38;;;14.67;nan
70758;BME280;59316;52.964;7.102;2022-09-20T09:21:27;102232.19;;;15.96;nan
70758;BME280;59316;52.964;7.102;2022-09-20T09:26:38;102233.53;;;16.15;nan
70758;BME280;59316;52.964;7.102;2022-09-20T09:31:41;102244.16;;;16.52;nan
70758;BME280;59316;52.964;7.102;2022-09-20T09:36:43;102238.19;;;16.74;nan
70758;BME280;59316;52.964;7.102;2022-09-20T09:41:51;102245.88;;;17.39;nan
70758;BME280;59316;52.964;7.102;2022-09-20T09:46:56;102245.16;;;17.83;nan
70758;BME280;59316;52.964;7.102;2022-09-20T09:52:14;102245.56;;;18.47;nan
70758;BME280;59316;52.964;7.102;2022-09-20T10:09:26;102241.72;;;19.06;nan
70758;BME280;59316;52.964;7.102;2022-09-20T10:19:55;102251.31;;;17.37;nan
70758;BME280;59316;52.964;7.102;2022-09-20T10:30:30;102256.47;;;15.76;nan
70758;BME280;59316;52.964;7.102;2022-09-20T10:35:51;102263.50;;;15.49;nan
70758;BME280;59316;52.964;7.102;2022-09-20T10:46:17;102259.44;;;16.61;nan
70758;BME280;59316;52.964;7.102;2022-09-20T10:51:53;102249.31;;;18.56;nan
70758;BME280;59316;52.964;7.102;2022-09-20T11:13:02;102254.63;;;18.67;nan
70758;BME280;59316;52.964;7.102;2022-09-20T11:28:53;102265.91;;;19.03;nan
70758;BME280;59316;52.964;7.102;2022-09-20T11:34:20;102257.34;;;18.99;nan
70758;BME280;59316;52.964;7.102;2022-09-20T11:39:53;102260.34;;;19.60;nan
70758;BME280;59316;52.964;7.102;2022-09-20T11:44:56;102261.13;;;20.65;nan
70758;BME280;59316;52.964;7.102;2022-09-20T12:00:47;102250.84;;;21.01;nan
70758;BME280;59316;52.964;7.102;2022-09-20T12:06:02;102302.94;;;21.44;nan
70758;BME280;59316;52.964;7.102;2022-09-20T13:07:31;102244.78;;;20.89;nan
70758;BME280;59316;52.964;7.102;2022-09-20T13:12:36;102248.13;;;20.30;nan
70758;BME280;59316;52.964;7.102;2022-09-20T13:17:41;102254.91;;;21.34;nan
70758;BME280;59316;52.964;7.102;2022-09-20T13:22:46;102255.84;;;19.81;nan
70758;BME280;59316;52.964;7.102;2022-09-20T13:28:25;102273.81;;;18.14;nan
70758;BME280;59316;52.964;7.102;2022-09-20T13:33:23;102279.09;;;17.56;nan
70758;BME280;59316;52.964;7.102;2022-09-20T13:38:31;102276.47;;;17.31;nan
70758;BME280;59316;52.964;7.102;2022-09-20T13:43:41;102273.19;;;19.34;nan
70758;BME280;59316;52.964;7.102;2022-09-20T13:48:47;102278.34;;;21.40;nan
70758;BME280;59316;52.964;7.102;2022-09-20T13:54:32;102270.22;;;22.56;nan
70758;BME280;59316;52.964;7.102;2022-09-20T13:59:40;102273.72;;;21.82;nan
70758;BME280;59316;52.964;7.102;2022-09-20T14:04:43;102274.47;;;20.65;nan
70758;BME280;59316;52.964;7.102;2022-09-20T14:09:46;102279.22;;;20.20;nan
70758;BME280;59316;52.964;7.102;2022-09-20T14:14:49;102270.53;;;20.18;nan
70758;BME280;59316;52.964;7.102;2022-09-20T14:19:53;102276.41;;;20.53;nan
70758;BME280;59316;52.964;7.102;2022-09-20T14:30:03;102279.97;;;19.26;nan
70758;BME280;59316;52.964;7.102;2022-09-20T14:35:06;102270.06;;;20.44;nan
70758;BME280;59316;52.964;7.102;2022-09-20T14:45:31;102270.69;;;20.67;nan
70758;BME280;59316;52.964;7.102;2022-09-20T14:50:41;102270.06;;;21.53;nan
70758;BME280;59316;52.964;7.102;2022-09-20T14:55:58;102276.41;;;20.62;nan
70758;BME280;59316;52.964;7.102;2022-09-20T15:01:05;102278.28;;;18.93;nan
70758;BME280;59316;52.964;7.102;2022-09-20T15:06:15;102290.78;;;17.53;nan
70758;BME280;59316;52.964;7.102;2022-09-20T15:11:18;102285.59;;;16.53;nan
70758;BME280;59316;52.964;7.102;2022-09-20T15:16:20;102286.25;;;16.44;nan
70758;BME280;59316;52.964;7.102;2022-09-20T15:21:22;102286.59;;;17.62;nan
70758;BME280;59316;52.964;7.102;2022-09-20T15:26:25;102289.78;;;18.48;nan
70758;BME280;59316;52.964;7.102;2022-09-20T15:31:27;102292.53;;;18.46;nan
70758;BME280;59316;52.964;7.102;2022-09-20T15:36:29;102289.19;;;17.15;nan
70758;BME280;59316;52.964;7.102;2022-09-20T15:41:32;102295.94;;;16.82;nan
70758;BME280;59316;52.964;7.102;2022-09-20T15:46:34;102291.53;;;17.55;nan
70758;BME280;59316;52.964;7.102;2022-09-20T15:51:36;102294.25;;;17.42;nan
70758;BME280;59316;52.964;7.102;2022-09-20T15:56:39;102289.41;;;17.12;nan
70758;BME280;59316;52.964;7.102;2022-09-20T16:01:42;102296.06;;;16.80;nan
70758;BME280;59316;52.964;7.102;2022-09-20T16:06:47;102306.72;;;16.16;nan
70758;BME280;59316;52.964;7.102;2022-09-20T16:11:50;102310.84;;;15.39;nan
70758;BME280;59316;52.964;7.102;2022-09-20T16:16:52;102312.94;;;14.80;nan
70758;BME280;59316;52.964;7.102;2022-09-20T16:21:55;102322.50;;;14.23;nan
70758;BME280;59316;52.964;7.102;2022-09-20T16:27:01;102329.91;;;13.71;nan
70758;BME280;59316;52.964;7.102;2022-09-20T16:52:16;102425.06;;;12.17;nan
70758;BME280;59316;52.964;7.102;2022-09-20T19:03:26;102562.09;;;8.81;nan
70758;BME280;59316;52.964;7.102;2022-09-20T21:41:32;102627.22;;;4.85;nan
